sensor_id;sensor_type;location;lat;lon;timestamp;P1;durP1;ratioP1;P2;durP2;ratioP2
12122;SDS011;6125;59.628;17.852;2023-11-21T00:02:21;5.53;;;3.00;;
12122;SDS011;6125;59.628;17.852;2023-11-21T00:04:48;6.47;;;2.87;;
12122;SDS011;6125;59.628;17.852;2023-11-21T00:07:15;4.13;;;2.77;;
12122;SDS011;6125;59.628;17.852;2023-11-21T00:09:42;5.27;;;2.60;;
12122;SDS011;6125;59.628;17.852;2023-11-21T00:12:09;4.13;;;2.60;;
12122;SDS011;6125;59.628;17.852;2023-11-21T00:14:36;3.77;;;2.73;;
12122;SDS011;6125;59.628;17.852;2023-11-21T00:17:05;5.63;;;2.83;;
12122;SDS011;6125;59.628;17.852;2023-11-21T00:19:33;2.77;;;2.40;;
12122;SDS011;6125;59.628;17.852;2023-11-21T00:22:01;3.57;;;2.60;;
12122;SDS011;6125;59.628;17.852;2023-11-21T00:24:28;4.20;;;2.23;;
12122;SDS011;6125;59.628;17.852;2023-11-21T00:26:55;5.90;;;2.47;;
12122;SDS011;6125;59.628;17.852;2023-11-21T00:29:25;3.10;;;2.50;;
12122;SDS011;6125;59.628;17.852;2023-11-21T00:31:52;4.33;;;2.87;;
12122;SDS011;6125;59.628;17.852;2023-11-21T00:34:20;3.37;;;2.37;;
12122;SDS011;6125;59.628;17.852;2023-11-21T00:36:47;2.60;;;2.10;;
12122;SDS011;6125;59.628;17.852;2023-11-21T00:39:14;4.43;;;2.57;;
12122;SDS011;6125;59.628;17.852;2023-11-21T00:41:41;2.70;;;2.30;;
12122;SDS011;6125;59.628;17.852;2023-11-21T00:44:09;2.87;;;2.30;;
12122;SDS011;6125;59.628;17.852;2023-11-21T00:46:36;3.87;;;2.40;;
12122;SDS011;6125;59.628;17.852;2023-11-21T00:49:03;4.67;;;2.50;;
12122;SDS011;6125;59.628;17.852;2023-11-21T00:51:32;4.50;;;2.70;;
12122;SDS011;6125;59.628;17.852;2023-11-21T00:53:59;3.33;;;2.00;;
12122;SDS011;6125;59.628;17.852;2023-11-21T00:56:26;2.90;;;2.20;;
12122;SDS011;6125;59.628;17.852;2023-11-21T00:58:54;2.77;;;2.10;;
12122;SDS011;6125;59.628;17.852;2023-11-21T01:01:21;3.37;;;2.20;;
12122;SDS011;6125;59.628;17.852;2023-11-21T01:03:57;3.77;;;2.83;;
12122;SDS011;6125;59.628;17.852;2023-11-21T01:06:24;2.43;;;1.97;;
12122;SDS011;6125;59.628;17.852;2023-11-21T01:08:53;3.90;;;2.00;;
12122;SDS011;6125;59.628;17.852;2023-11-21T01:11:22;2.73;;;2.20;;
12122;SDS011;6125;59.628;17.852;2023-11-21T01:13:49;4.10;;;2.40;;
12122;SDS011;6125;59.628;17.852;2023-11-21T01:16:16;3.83;;;2.50;;
12122;SDS011;6125;59.628;17.852;2023-11-21T01:18:43;3.40;;;2.60;;
12122;SDS011;6125;59.628;17.852;2023-11-21T01:21:10;3.00;;;2.30;;
12122;SDS011;6125;59.628;17.852;2023-11-21T01:23:37;2.80;;;2.03;;
12122;SDS011;6125;59.628;17.852;2023-11-21T01:26:06;3.20;;;2.30;;
12122;SDS011;6125;59.628;17.852;2023-11-21T01:28:34;3.17;;;2.47;;
12122;SDS011;6125;59.628;17.852;2023-11-21T01:31:01;3.13;;;2.57;;
12122;SDS011;6125;59.628;17.852;2023-11-21T01:33:29;3.30;;;2.27;;
12122;SDS011;6125;59.628;17.852;2023-11-21T01:35:56;3.70;;;2.30;;
12122;SDS011;6125;59.628;17.852;2023-11-21T01:38:23;2.97;;;2.07;;
12122;SDS011;6125;59.628;17.852;2023-11-21T01:40:50;2.63;;;2.10;;
12122;SDS011;6125;59.628;17.852;2023-11-21T01:43:20;2.53;;;1.93;;
12122;SDS011;6125;59.628;17.852;2023-11-21T01:45:48;2.00;;;1.80;;
12122;SDS011;6125;59.628;17.852;2023-11-21T01:48:16;3.60;;;1.93;;
12122;SDS011;6125;59.628;17.852;2023-11-21T01:50:44;2.10;;;1.90;;
12122;SDS011;6125;59.628;17.852;2023-11-21T01:53:13;2.10;;;1.90;;
12122;SDS011;6125;59.628;17.852;2023-11-21T01:55:41;2.20;;;1.83;;
12122;SDS011;6125;59.628;17.852;2023-11-21T01:58:09;2.00;;;1.70;;
12122;SDS011;6125;59.628;17.852;2023-11-21T02:00:41;1.70;;;1.60;;
12122;SDS011;6125;59.628;17.852;2023-11-21T02:03:08;1.87;;;1.77;;
12122;SDS011;6125;59.628;17.852;2023-11-21T02:05:37;3.13;;;1.57;;
12122;SDS011;6125;59.628;17.852;2023-11-21T02:08:04;1.20;;;1.10;;
12122;SDS011;6125;59.628;17.852;2023-11-21T02:10:35;2.43;;;1.50;;
12122;SDS011;6125;59.628;17.852;2023-11-21T02:13:02;1.30;;;1.20;;
12122;SDS011;6125;59.628;17.852;2023-11-21T02:15:29;1.50;;;1.30;;
12122;SDS011;6125;59.628;17.852;2023-11-21T02:17:58;1.40;;;1.30;;
12122;SDS011;6125;59.628;17.852;2023-11-21T02:20:25;2.43;;;1.60;;
12122;SDS011;6125;59.628;17.852;2023-11-21T02:22:55;1.47;;;1.37;;
12122;SDS011;6125;59.628;17.852;2023-11-21T02:25:24;1.47;;;1.20;;
12122;SDS011;6125;59.628;17.852;2023-11-21T02:27:56;1.77;;;1.47;;
12122;SDS011;6125;59.628;17.852;2023-11-21T02:30:24;1.60;;;1.50;;
12122;SDS011;6125;59.628;17.852;2023-11-21T02:32:56;1.40;;;1.30;;
12122;SDS011;6125;59.628;17.852;2023-11-21T02:35:26;1.73;;;1.50;;
12122;SDS011;6125;59.628;17.852;2023-11-21T02:37:57;1.60;;;1.50;;
12122;SDS011;6125;59.628;17.852;2023-11-21T02:40:32;3.40;;;1.57;;
12122;SDS011;6125;59.628;17.852;2023-11-21T02:43:00;1.47;;;1.37;;
12122;SDS011;6125;59.628;17.852;2023-11-21T02:45:27;1.90;;;1.57;;
12122;SDS011;6125;59.628;17.852;2023-11-21T02:47:54;1.90;;;1.70;;
12122;SDS011;6125;59.628;17.852;2023-11-21T02:50:21;2.43;;;1.50;;
12122;SDS011;6125;59.628;17.852;2023-11-21T02:52:48;1.60;;;1.50;;
12122;SDS011;6125;59.628;17.852;2023-11-21T02:55:17;1.90;;;1.67;;
12122;SDS011;6125;59.628;17.852;2023-11-21T02:57:45;1.37;;;1.27;;
12122;SDS011;6125;59.628;17.852;2023-11-21T03:00:12;1.87;;;1.53;;
12122;SDS011;6125;59.628;17.852;2023-11-21T03:02:40;1.40;;;1.30;;
12122;SDS011;6125;59.628;17.852;2023-11-21T03:05:08;2.00;;;1.33;;
12122;SDS011;6125;59.628;17.852;2023-11-21T03:07:36;1.33;;;1.20;;
12122;SDS011;6125;59.628;17.852;2023-11-21T03:10:05;1.70;;;1.60;;
12122;SDS011;6125;59.628;17.852;2023-11-21T03:12:37;2.27;;;1.50;;
12122;SDS011;6125;59.628;17.852;2023-11-21T03:15:12;1.40;;;1.30;;
12122;SDS011;6125;59.628;17.852;2023-11-21T03:17:42;1.50;;;1.40;;
12122;SDS011;6125;59.628;17.852;2023-11-21T03:20:10;1.40;;;1.30;;
12122;SDS011;6125;59.628;17.852;2023-11-21T03:22:39;1.60;;;1.50;;
12122;SDS011;6125;59.628;17.852;2023-11-21T03:25:06;1.90;;;1.70;;
12122;SDS011;6125;59.628;17.852;2023-11-21T03:27:37;1.27;;;1.17;;
12122;SDS011;6125;59.628;17.852;2023-11-21T03:30:07;1.87;;;1.77;;
12122;SDS011;6125;59.628;17.852;2023-11-21T03:32:37;1.57;;;1.40;;
12122;SDS011;6125;59.628;17.852;2023-11-21T03:35:07;2.47;;;1.57;;
12122;SDS011;6125;59.628;17.852;2023-11-21T03:37:36;2.87;;;1.60;;
12122;SDS011;6125;59.628;17.852;2023-11-21T03:40:06;3.10;;;1.60;;
12122;SDS011;6125;59.628;17.852;2023-11-21T03:42:34;1.87;;;1.63;;
12122;SDS011;6125;59.628;17.852;2023-11-21T03:45:05;2.13;;;1.70;;
12122;SDS011;6125;59.628;17.852;2023-11-21T03:47:33;2.33;;;1.73;;
12122;SDS011;6125;59.628;17.852;2023-11-21T03:50:00;1.83;;;1.53;;
12122;SDS011;6125;59.628;17.852;2023-11-21T03:52:28;1.97;;;1.63;;
12122;SDS011;6125;59.628;17.852;2023-11-21T03:54:56;2.30;;;1.83;;
12122;SDS011;6125;59.628;17.852;2023-11-21T03:57:30;2.47;;;1.43;;
12122;SDS011;6125;59.628;17.852;2023-11-21T03:59:57;3.50;;;1.70;;
12122;SDS011;6125;59.628;17.852;2023-11-21T04:02:27;2.73;;;1.90;;
12122;SDS011;6125;59.628;17.852;2023-11-21T04:04:56;1.80;;;1.60;;
12122;SDS011;6125;59.628;17.852;2023-11-21T04:07:23;2.60;;;1.63;;
12122;SDS011;6125;59.628;17.852;2023-11-21T04:09:52;2.20;;;1.53;;
12122;SDS011;6125;59.628;17.852;2023-11-21T04:12:20;2.03;;;1.60;;
12122;SDS011;6125;59.628;17.852;2023-11-21T04:14:48;2.53;;;1.50;;
12122;SDS011;6125;59.628;17.852;2023-11-21T04:17:18;2.00;;;1.80;;
12122;SDS011;6125;59.628;17.852;2023-11-21T04:19:53;1.97;;;1.50;;
12122;SDS011;6125;59.628;17.852;2023-11-21T04:22:20;1.57;;;1.33;;
12122;SDS011;6125;59.628;17.852;2023-11-21T04:24:47;1.53;;;1.43;;
12122;SDS011;6125;59.628;17.852;2023-11-21T04:27:15;1.77;;;1.60;;
12122;SDS011;6125;59.628;17.852;2023-11-21T04:29:43;2.63;;;2.00;;
12122;SDS011;6125;59.628;17.852;2023-11-21T04:32:11;1.97;;;1.60;;
12122;SDS011;6125;59.628;17.852;2023-11-21T04:34:38;1.73;;;1.63;;
12122;SDS011;6125;59.628;17.852;2023-11-21T04:37:06;2.20;;;1.63;;
12122;SDS011;6125;59.628;17.852;2023-11-21T04:39:35;2.47;;;1.80;;
12122;SDS011;6125;59.628;17.852;2023-11-21T04:42:02;2.10;;;1.73;;
12122;SDS011;6125;59.628;17.852;2023-11-21T04:44:30;2.20;;;1.40;;
12122;SDS011;6125;59.628;17.852;2023-11-21T04:46:57;1.90;;;1.70;;
12122;SDS011;6125;59.628;17.852;2023-11-21T04:49:24;2.73;;;1.80;;
12122;SDS011;6125;59.628;17.852;2023-11-21T04:51:51;1.80;;;1.50;;
12122;SDS011;6125;59.628;17.852;2023-11-21T04:54:19;2.37;;;1.87;;
12122;SDS011;6125;59.628;17.852;2023-11-21T04:56:48;2.47;;;1.70;;
12122;SDS011;6125;59.628;17.852;2023-11-21T04:59:15;2.80;;;1.50;;
12122;SDS011;6125;59.628;17.852;2023-11-21T05:01:45;5.27;;;1.93;;
12122;SDS011;6125;59.628;17.852;2023-11-21T05:04:12;2.27;;;1.80;;
12122;SDS011;6125;59.628;17.852;2023-11-21T05:06:39;1.93;;;1.70;;
12122;SDS011;6125;59.628;17.852;2023-11-21T05:09:07;1.63;;;1.40;;
12122;SDS011;6125;59.628;17.852;2023-11-21T05:11:39;2.63;;;1.70;;
12122;SDS011;6125;59.628;17.852;2023-11-21T05:14:08;2.87;;;2.03;;
12122;SDS011;6125;59.628;17.852;2023-11-21T05:16:35;3.30;;;2.30;;
12122;SDS011;6125;59.628;17.852;2023-11-21T05:19:03;2.23;;;2.00;;
12122;SDS011;6125;59.628;17.852;2023-11-21T05:21:33;2.30;;;2.07;;
12122;SDS011;6125;59.628;17.852;2023-11-21T05:24:01;3.03;;;2.40;;
12122;SDS011;6125;59.628;17.852;2023-11-21T05:26:28;4.23;;;1.77;;
12122;SDS011;6125;59.628;17.852;2023-11-21T05:29:04;2.60;;;2.10;;
12122;SDS011;6125;59.628;17.852;2023-11-21T05:31:31;2.50;;;2.07;;
12122;SDS011;6125;59.628;17.852;2023-11-21T05:33:58;2.53;;;2.10;;
12122;SDS011;6125;59.628;17.852;2023-11-21T05:36:26;3.30;;;2.23;;
12122;SDS011;6125;59.628;17.852;2023-11-21T05:38:54;3.10;;;2.17;;
12122;SDS011;6125;59.628;17.852;2023-11-21T05:41:21;2.40;;;2.20;;
12122;SDS011;6125;59.628;17.852;2023-11-21T05:43:48;2.33;;;1.97;;
12122;SDS011;6125;59.628;17.852;2023-11-21T05:46:17;6.67;;;2.30;;
12122;SDS011;6125;59.628;17.852;2023-11-21T05:48:44;3.50;;;2.37;;
12122;SDS011;6125;59.628;17.852;2023-11-21T05:51:12;6.57;;;2.87;;
12122;SDS011;6125;59.628;17.852;2023-11-21T05:53:40;3.10;;;2.13;;
12122;SDS011;6125;59.628;17.852;2023-11-21T05:56:07;3.57;;;2.13;;
12122;SDS011;6125;59.628;17.852;2023-11-21T05:58:34;4.60;;;2.53;;
12122;SDS011;6125;59.628;17.852;2023-11-21T06:01:01;4.00;;;2.60;;
12122;SDS011;6125;59.628;17.852;2023-11-21T06:03:34;4.57;;;3.00;;
12122;SDS011;6125;59.628;17.852;2023-11-21T06:06:02;3.50;;;2.60;;
12122;SDS011;6125;59.628;17.852;2023-11-21T06:08:33;5.63;;;2.87;;
12122;SDS011;6125;59.628;17.852;2023-11-21T06:11:00;3.60;;;2.67;;
12122;SDS011;6125;59.628;17.852;2023-11-21T06:13:28;3.83;;;2.60;;
12122;SDS011;6125;59.628;17.852;2023-11-21T06:15:57;3.43;;;2.70;;
12122;SDS011;6125;59.628;17.852;2023-11-21T06:18:25;4.10;;;2.83;;
12122;SDS011;6125;59.628;17.852;2023-11-21T06:20:54;6.07;;;2.70;;
12122;SDS011;6125;59.628;17.852;2023-11-21T06:23:21;3.83;;;2.50;;
12122;SDS011;6125;59.628;17.852;2023-11-21T06:25:48;5.70;;;3.80;;
12122;SDS011;6125;59.628;17.852;2023-11-21T06:28:15;6.23;;;3.10;;
12122;SDS011;6125;59.628;17.852;2023-11-21T06:30:43;4.10;;;2.90;;
12122;SDS011;6125;59.628;17.852;2023-11-21T06:33:11;10.27;;;2.60;;
12122;SDS011;6125;59.628;17.852;2023-11-21T06:35:38;8.67;;;3.37;;
12122;SDS011;6125;59.628;17.852;2023-11-21T06:38:12;3.80;;;3.03;;
12122;SDS011;6125;59.628;17.852;2023-11-21T06:40:40;6.60;;;3.90;;
12122;SDS011;6125;59.628;17.852;2023-11-21T06:43:11;5.27;;;3.63;;
12122;SDS011;6125;59.628;17.852;2023-11-21T06:45:39;6.43;;;3.63;;
12122;SDS011;6125;59.628;17.852;2023-11-21T06:48:07;5.30;;;3.50;;
12122;SDS011;6125;59.628;17.852;2023-11-21T06:50:34;4.10;;;3.40;;
12122;SDS011;6125;59.628;17.852;2023-11-21T06:53:02;5.70;;;3.87;;
12122;SDS011;6125;59.628;17.852;2023-11-21T06:55:34;5.33;;;3.83;;
12122;SDS011;6125;59.628;17.852;2023-11-21T06:58:01;7.20;;;4.23;;
12122;SDS011;6125;59.628;17.852;2023-11-21T07:00:28;6.10;;;3.57;;
12122;SDS011;6125;59.628;17.852;2023-11-21T07:02:55;5.07;;;3.60;;
12122;SDS011;6125;59.628;17.852;2023-11-21T07:05:22;6.37;;;3.03;;
12122;SDS011;6125;59.628;17.852;2023-11-21T07:07:49;5.07;;;3.47;;
12122;SDS011;6125;59.628;17.852;2023-11-21T07:10:20;4.83;;;3.30;;
12122;SDS011;6125;59.628;17.852;2023-11-21T07:12:51;7.83;;;3.93;;
12122;SDS011;6125;59.628;17.852;2023-11-21T07:15:22;6.40;;;3.67;;
12122;SDS011;6125;59.628;17.852;2023-11-21T07:17:51;7.87;;;4.10;;
12122;SDS011;6125;59.628;17.852;2023-11-21T07:20:20;5.13;;;3.63;;
12122;SDS011;6125;59.628;17.852;2023-11-21T07:22:50;6.87;;;3.50;;
12122;SDS011;6125;59.628;17.852;2023-11-21T07:25:18;5.90;;;3.40;;
12122;SDS011;6125;59.628;17.852;2023-11-21T07:27:51;6.90;;;3.73;;
12122;SDS011;6125;59.628;17.852;2023-11-21T07:30:20;6.57;;;4.10;;
12122;SDS011;6125;59.628;17.852;2023-11-21T07:32:47;6.33;;;3.70;;
12122;SDS011;6125;59.628;17.852;2023-11-21T07:35:16;6.27;;;3.90;;
12122;SDS011;6125;59.628;17.852;2023-11-21T07:37:43;4.90;;;3.80;;
12122;SDS011;6125;59.628;17.852;2023-11-21T07:40:12;5.40;;;4.07;;
12122;SDS011;6125;59.628;17.852;2023-11-21T07:42:39;8.67;;;3.83;;
12122;SDS011;6125;59.628;17.852;2023-11-21T07:45:09;5.80;;;3.77;;
12122;SDS011;6125;59.628;17.852;2023-11-21T07:47:36;7.53;;;4.17;;
12122;SDS011;6125;59.628;17.852;2023-11-21T07:50:04;5.27;;;3.93;;
12122;SDS011;6125;59.628;17.852;2023-11-21T07:52:33;5.27;;;3.33;;
12122;SDS011;6125;59.628;17.852;2023-11-21T07:55:00;5.07;;;3.43;;
12122;SDS011;6125;59.628;17.852;2023-11-21T07:57:27;6.60;;;3.33;;
12122;SDS011;6125;59.628;17.852;2023-11-21T07:59:54;3.60;;;3.10;;
12122;SDS011;6125;59.628;17.852;2023-11-21T08:02:23;4.80;;;3.13;;
12122;SDS011;6125;59.628;17.852;2023-11-21T08:04:51;6.50;;;3.70;;
12122;SDS011;6125;59.628;17.852;2023-11-21T08:07:18;7.40;;;3.30;;
12122;SDS011;6125;59.628;17.852;2023-11-21T08:09:45;4.60;;;3.13;;
12122;SDS011;6125;59.628;17.852;2023-11-21T08:12:15;4.47;;;3.20;;
12122;SDS011;6125;59.628;17.852;2023-11-21T08:14:42;6.03;;;4.07;;
12122;SDS011;6125;59.628;17.852;2023-11-21T08:17:09;5.60;;;3.40;;
12122;SDS011;6125;59.628;17.852;2023-11-21T08:19:38;5.97;;;3.27;;
12122;SDS011;6125;59.628;17.852;2023-11-21T08:22:05;7.17;;;3.93;;
12122;SDS011;6125;59.628;17.852;2023-11-21T08:24:33;5.37;;;3.33;;
12122;SDS011;6125;59.628;17.852;2023-11-21T08:27:02;7.33;;;3.73;;
12122;SDS011;6125;59.628;17.852;2023-11-21T08:29:30;6.60;;;4.03;;
12122;SDS011;6125;59.628;17.852;2023-11-21T08:31:57;6.03;;;3.67;;
12122;SDS011;6125;59.628;17.852;2023-11-21T08:34:25;5.53;;;3.43;;
12122;SDS011;6125;59.628;17.852;2023-11-21T08:36:54;5.10;;;3.53;;
12122;SDS011;6125;59.628;17.852;2023-11-21T08:39:22;4.87;;;3.57;;
12122;SDS011;6125;59.628;17.852;2023-11-21T08:41:49;5.37;;;3.53;;
12122;SDS011;6125;59.628;17.852;2023-11-21T08:44:16;5.47;;;3.63;;
12122;SDS011;6125;59.628;17.852;2023-11-21T08:46:45;6.00;;;3.37;;
12122;SDS011;6125;59.628;17.852;2023-11-21T08:49:12;4.10;;;3.30;;
12122;SDS011;6125;59.628;17.852;2023-11-21T08:51:40;5.40;;;3.27;;
12122;SDS011;6125;59.628;17.852;2023-11-21T08:54:09;5.80;;;3.37;;
12122;SDS011;6125;59.628;17.852;2023-11-21T08:56:37;6.20;;;4.13;;
12122;SDS011;6125;59.628;17.852;2023-11-21T08:59:05;5.87;;;3.37;;
12122;SDS011;6125;59.628;17.852;2023-11-21T09:01:33;6.53;;;3.80;;
12122;SDS011;6125;59.628;17.852;2023-11-21T09:04:00;5.77;;;3.43;;
12122;SDS011;6125;59.628;17.852;2023-11-21T09:06:27;5.80;;;4.37;;
12122;SDS011;6125;59.628;17.852;2023-11-21T09:08:54;4.73;;;3.30;;
12122;SDS011;6125;59.628;17.852;2023-11-21T09:11:24;9.87;;;3.43;;
12122;SDS011;6125;59.628;17.852;2023-11-21T09:13:56;8.03;;;3.50;;
12122;SDS011;6125;59.628;17.852;2023-11-21T09:16:24;7.70;;;3.87;;
12122;SDS011;6125;59.628;17.852;2023-11-21T09:18:51;4.17;;;3.07;;
12122;SDS011;6125;59.628;17.852;2023-11-21T09:21:18;5.73;;;3.27;;
12122;SDS011;6125;59.628;17.852;2023-11-21T09:23:46;5.07;;;3.17;;
12122;SDS011;6125;59.628;17.852;2023-11-21T09:26:14;6.40;;;3.40;;
12122;SDS011;6125;59.628;17.852;2023-11-21T09:28:44;7.23;;;3.60;;
12122;SDS011;6125;59.628;17.852;2023-11-21T09:31:16;5.30;;;3.53;;
12122;SDS011;6125;59.628;17.852;2023-11-21T09:33:47;4.80;;;3.37;;
12122;SDS011;6125;59.628;17.852;2023-11-21T09:36:14;5.80;;;3.53;;
12122;SDS011;6125;59.628;17.852;2023-11-21T09:38:42;5.83;;;4.20;;
12122;SDS011;6125;59.628;17.852;2023-11-21T09:41:11;6.40;;;3.77;;
12122;SDS011;6125;59.628;17.852;2023-11-21T09:43:47;6.00;;;4.23;;
12122;SDS011;6125;59.628;17.852;2023-11-21T09:46:15;5.80;;;3.90;;
12122;SDS011;6125;59.628;17.852;2023-11-21T09:48:46;6.73;;;4.23;;
12122;SDS011;6125;59.628;17.852;2023-11-21T09:51:17;7.23;;;4.50;;
12122;SDS011;6125;59.628;17.852;2023-11-21T09:53:48;7.17;;;3.90;;
12122;SDS011;6125;59.628;17.852;2023-11-21T09:56:18;7.87;;;4.20;;
12122;SDS011;6125;59.628;17.852;2023-11-21T09:58:51;7.00;;;4.47;;
12122;SDS011;6125;59.628;17.852;2023-11-21T10:01:21;6.63;;;4.03;;
12122;SDS011;6125;59.628;17.852;2023-11-21T10:03:53;6.70;;;4.07;;
12122;SDS011;6125;59.628;17.852;2023-11-21T10:06:21;7.13;;;4.20;;
12122;SDS011;6125;59.628;17.852;2023-11-21T10:08:50;4.67;;;3.87;;
12122;SDS011;6125;59.628;17.852;2023-11-21T10:11:18;8.37;;;4.70;;
12122;SDS011;6125;59.628;17.852;2023-11-21T10:13:47;7.67;;;4.30;;
12122;SDS011;6125;59.628;17.852;2023-11-21T10:16:18;8.33;;;4.10;;
12122;SDS011;6125;59.628;17.852;2023-11-21T10:18:47;8.07;;;4.17;;
12122;SDS011;6125;59.628;17.852;2023-11-21T10:21:18;5.80;;;3.73;;
12122;SDS011;6125;59.628;17.852;2023-11-21T10:23:48;6.30;;;4.13;;
12122;SDS011;6125;59.628;17.852;2023-11-21T10:26:18;5.43;;;4.10;;
12122;SDS011;6125;59.628;17.852;2023-11-21T10:28:55;5.87;;;4.20;;
12122;SDS011;6125;59.628;17.852;2023-11-21T10:31:24;4.80;;;3.30;;
12122;SDS011;6125;59.628;17.852;2023-11-21T10:33:53;6.03;;;3.53;;
12122;SDS011;6125;59.628;17.852;2023-11-21T10:36:24;8.07;;;3.47;;
12122;SDS011;6125;59.628;17.852;2023-11-21T10:38:52;8.87;;;4.13;;
12122;SDS011;6125;59.628;17.852;2023-11-21T10:41:20;5.20;;;3.43;;
12122;SDS011;6125;59.628;17.852;2023-11-21T10:43:48;4.47;;;3.57;;
12122;SDS011;6125;59.628;17.852;2023-11-21T10:46:15;5.87;;;3.67;;
12122;SDS011;6125;59.628;17.852;2023-11-21T10:48:45;5.37;;;4.00;;
12122;SDS011;6125;59.628;17.852;2023-11-21T10:51:12;5.33;;;3.67;;
12122;SDS011;6125;59.628;17.852;2023-11-21T10:53:44;5.33;;;3.73;;
12122;SDS011;6125;59.628;17.852;2023-11-21T10:56:11;5.57;;;4.17;;
12122;SDS011;6125;59.628;17.852;2023-11-21T10:58:42;4.97;;;3.67;;
12122;SDS011;6125;59.628;17.852;2023-11-21T11:01:10;6.07;;;3.17;;
12122;SDS011;6125;59.628;17.852;2023-11-21T11:03:41;6.23;;;4.20;;
12122;SDS011;6125;59.628;17.852;2023-11-21T11:06:10;6.90;;;4.17;;
12122;SDS011;6125;59.628;17.852;2023-11-21T11:08:38;6.63;;;3.77;;
12122;SDS011;6125;59.628;17.852;2023-11-21T11:11:06;7.13;;;4.90;;
12122;SDS011;6125;59.628;17.852;2023-11-21T11:13:35;6.13;;;4.27;;
12122;SDS011;6125;59.628;17.852;2023-11-21T11:16:03;4.43;;;3.60;;
12122;SDS011;6125;59.628;17.852;2023-11-21T11:18:33;5.93;;;3.50;;
12122;SDS011;6125;59.628;17.852;2023-11-21T11:21:06;5.13;;;3.70;;
12122;SDS011;6125;59.628;17.852;2023-11-21T11:23:49;6.27;;;3.77;;
12122;SDS011;6125;59.628;17.852;2023-11-21T11:26:31;3.87;;;3.20;;
12122;SDS011;6125;59.628;17.852;2023-11-21T11:29:08;5.93;;;3.27;;
12122;SDS011;6125;59.628;17.852;2023-11-21T11:31:49;5.33;;;3.50;;
12122;SDS011;6125;59.628;17.852;2023-11-21T11:34:23;5.40;;;3.67;;
12122;SDS011;6125;59.628;17.852;2023-11-21T11:36:59;5.33;;;3.30;;
12122;SDS011;6125;59.628;17.852;2023-11-21T11:39:29;3.90;;;3.20;;
12122;SDS011;6125;59.628;17.852;2023-11-21T11:41:57;5.00;;;3.30;;
12122;SDS011;6125;59.628;17.852;2023-11-21T11:47:20;5.83;;;3.43;;
12122;SDS011;6125;59.628;17.852;2023-11-21T11:49:56;4.97;;;3.43;;
12122;SDS011;6125;59.628;17.852;2023-11-21T11:52:33;5.27;;;3.37;;
12122;SDS011;6125;59.628;17.852;2023-11-21T11:55:01;7.23;;;3.53;;
12122;SDS011;6125;59.628;17.852;2023-11-21T11:57:30;3.50;;;2.80;;
12122;SDS011;6125;59.628;17.852;2023-11-21T12:00:14;4.53;;;3.53;;
12122;SDS011;6125;59.628;17.852;2023-11-21T12:02:47;4.30;;;3.23;;
12122;SDS011;6125;59.628;17.852;2023-11-21T12:05:15;5.40;;;3.03;;
12122;SDS011;6125;59.628;17.852;2023-11-21T12:07:48;5.33;;;3.27;;
12122;SDS011;6125;59.628;17.852;2023-11-21T12:10:20;5.63;;;3.70;;
12122;SDS011;6125;59.628;17.852;2023-11-21T12:12:50;5.57;;;3.10;;
12122;SDS011;6125;59.628;17.852;2023-11-21T12:15:18;4.77;;;3.10;;
12122;SDS011;6125;59.628;17.852;2023-11-21T12:17:46;3.70;;;2.90;;
12122;SDS011;6125;59.628;17.852;2023-11-21T12:20:15;4.27;;;3.13;;
12122;SDS011;6125;59.628;17.852;2023-11-21T12:22:48;4.07;;;2.87;;
12122;SDS011;6125;59.628;17.852;2023-11-21T12:25:18;8.60;;;3.37;;
12122;SDS011;6125;59.628;17.852;2023-11-21T12:27:47;3.40;;;3.00;;
12122;SDS011;6125;59.628;17.852;2023-11-21T12:30:18;4.13;;;3.07;;
12122;SDS011;6125;59.628;17.852;2023-11-21T12:32:47;3.47;;;2.60;;
12122;SDS011;6125;59.628;17.852;2023-11-21T12:35:16;4.27;;;3.50;;
12122;SDS011;6125;59.628;17.852;2023-11-21T12:37:54;5.13;;;3.00;;
12122;SDS011;6125;59.628;17.852;2023-11-21T12:40:23;4.70;;;2.80;;
12122;SDS011;6125;59.628;17.852;2023-11-21T12:42:51;3.63;;;2.90;;
12122;SDS011;6125;59.628;17.852;2023-11-21T12:45:20;4.27;;;2.70;;
12122;SDS011;6125;59.628;17.852;2023-11-21T12:47:51;2.90;;;2.40;;
12122;SDS011;6125;59.628;17.852;2023-11-21T12:50:22;2.73;;;2.30;;
12122;SDS011;6125;59.628;17.852;2023-11-21T12:52:57;3.67;;;2.53;;
12122;SDS011;6125;59.628;17.852;2023-11-21T12:55:25;4.53;;;2.67;;
12122;SDS011;6125;59.628;17.852;2023-11-21T12:57:55;4.37;;;2.70;;
12122;SDS011;6125;59.628;17.852;2023-11-21T13:00:27;4.63;;;2.40;;
12122;SDS011;6125;59.628;17.852;2023-11-21T13:02:59;3.63;;;2.47;;
12122;SDS011;6125;59.628;17.852;2023-11-21T13:05:29;5.60;;;2.90;;
12122;SDS011;6125;59.628;17.852;2023-11-21T13:07:59;2.53;;;2.30;;
12122;SDS011;6125;59.628;17.852;2023-11-21T13:10:33;3.27;;;2.67;;
12122;SDS011;6125;59.628;17.852;2023-11-21T13:13:02;4.00;;;2.70;;
12122;SDS011;6125;59.628;17.852;2023-11-21T13:15:38;3.07;;;2.37;;
12122;SDS011;6125;59.628;17.852;2023-11-21T13:18:06;2.80;;;2.27;;
12122;SDS011;6125;59.628;17.852;2023-11-21T13:20:36;4.03;;;2.63;;
12122;SDS011;6125;59.628;17.852;2023-11-21T13:23:07;5.47;;;3.77;;
12122;SDS011;6125;59.628;17.852;2023-11-21T13:25:37;4.63;;;3.27;;
12122;SDS011;6125;59.628;17.852;2023-11-21T13:28:06;3.33;;;2.93;;
12122;SDS011;6125;59.628;17.852;2023-11-21T13:30:34;6.43;;;3.87;;
12122;SDS011;6125;59.628;17.852;2023-11-21T13:33:02;6.17;;;3.93;;
12122;SDS011;6125;59.628;17.852;2023-11-21T13:35:31;3.43;;;2.80;;
12122;SDS011;6125;59.628;17.852;2023-11-21T13:38:03;4.97;;;3.57;;
12122;SDS011;6125;59.628;17.852;2023-11-21T13:40:34;3.97;;;3.00;;
12122;SDS011;6125;59.628;17.852;2023-11-21T13:43:09;5.07;;;3.20;;
12122;SDS011;6125;59.628;17.852;2023-11-21T13:45:36;6.00;;;3.07;;
12122;SDS011;6125;59.628;17.852;2023-11-21T13:48:04;3.27;;;2.83;;
12122;SDS011;6125;59.628;17.852;2023-11-21T13:50:35;6.37;;;3.57;;
12122;SDS011;6125;59.628;17.852;2023-11-21T13:53:05;4.33;;;3.30;;
12122;SDS011;6125;59.628;17.852;2023-11-21T13:55:49;5.63;;;3.37;;
12122;SDS011;6125;59.628;17.852;2023-11-21T13:58:19;6.03;;;3.23;;
12122;SDS011;6125;59.628;17.852;2023-11-21T14:00:51;5.07;;;3.03;;
12122;SDS011;6125;59.628;17.852;2023-11-21T14:03:22;5.07;;;3.10;;
12122;SDS011;6125;59.628;17.852;2023-11-21T14:05:57;6.67;;;3.93;;
12122;SDS011;6125;59.628;17.852;2023-11-21T14:08:27;4.67;;;2.87;;
12122;SDS011;6125;59.628;17.852;2023-11-21T14:10:54;6.63;;;3.40;;
12122;SDS011;6125;59.628;17.852;2023-11-21T14:13:22;6.10;;;3.67;;
12122;SDS011;6125;59.628;17.852;2023-11-21T14:15:49;5.43;;;3.30;;
12122;SDS011;6125;59.628;17.852;2023-11-21T14:18:22;3.90;;;2.80;;
12122;SDS011;6125;59.628;17.852;2023-11-21T14:20:55;5.53;;;3.20;;
12122;SDS011;6125;59.628;17.852;2023-11-21T14:23:24;4.57;;;3.13;;
12122;SDS011;6125;59.628;17.852;2023-11-21T14:25:56;4.37;;;3.33;;
12122;SDS011;6125;59.628;17.852;2023-11-21T14:28:23;4.33;;;2.83;;
12122;SDS011;6125;59.628;17.852;2023-11-21T14:30:53;6.53;;;4.00;;
12122;SDS011;6125;59.628;17.852;2023-11-21T14:33:23;7.37;;;3.47;;
12122;SDS011;6125;59.628;17.852;2023-11-21T14:35:50;6.53;;;3.90;;
12122;SDS011;6125;59.628;17.852;2023-11-21T14:38:17;5.50;;;3.77;;
12122;SDS011;6125;59.628;17.852;2023-11-21T14:40:44;4.80;;;3.73;;
12122;SDS011;6125;59.628;17.852;2023-11-21T14:43:16;5.50;;;3.40;;
12122;SDS011;6125;59.628;17.852;2023-11-21T14:45:45;8.43;;;4.43;;
12122;SDS011;6125;59.628;17.852;2023-11-21T14:48:14;8.23;;;4.17;;
12122;SDS011;6125;59.628;17.852;2023-11-21T14:50:46;6.67;;;3.40;;
12122;SDS011;6125;59.628;17.852;2023-11-21T14:53:37;8.87;;;5.00;;
12122;SDS011;6125;59.628;17.852;2023-11-21T14:56:18;6.70;;;4.03;;
12122;SDS011;6125;59.628;17.852;2023-11-21T14:58:57;6.37;;;4.23;;
12122;SDS011;6125;59.628;17.852;2023-11-21T15:01:32;6.43;;;4.07;;
12122;SDS011;6125;59.628;17.852;2023-11-21T15:04:11;6.73;;;4.57;;